• Join FlightAware (Why Join?)
  • Login
  • US Flag 
11:10PM EST


 

Airport Tracker/Info


-or-


 

Live Flight TrackerFlight Track Log ✈ N441R ✈ 25-Jul-2013 ✈ KJZI - KBKW

Flight Track Log - Related Links

Times and Time Zones

All times are in EDT time to prevent confusion due to time zone crossing. See the N441R flight status page for this flight to view local times or setup timezone preferences in your user account.

Time Position Orientation Groundspeed Altitude Reporting Facility
EDT Latitude Longitude Course Direction KTS MPH feet Rate Location/Type
07:10PM 32.7767 -79.8264 North 204 235 5,900  Level Jacksonville Center
07:11PM 32.8306 -79.8197 North 209 241 7,600 1,680 Climbing Jacksonville Center
07:12PM 32.8892 -79.8178 North 209 241 9,300 1,680 Climbing Jacksonville Center
07:13PM 33.0962 -80.0821 344° North  Level FlightAware Approximate
07:13PM 32.9475 -79.8206 358° North 209 241 11,000  Level Jacksonville Center
07:14PM 33.1624 -80.0958 351° North  Level FlightAware Approximate
07:14PM 33.0061 -79.8261 355° North 209 241 12,700  Level Jacksonville Center
07:15PM 33.0647 -79.8314 356° North 209 241 14,400 1,740 Climbing Jacksonville Center
07:16PM 33.1233 -79.8344 358° North 209 241 16,200 1,680 Climbing Jacksonville Center
07:17PM 33.1756 -79.8425 353° North 202 232 17,800 1,560 Climbing Jacksonville Center
07:18PM 33.2236 -79.8483 354° North 190 219 19,400 1,500 Climbing Jacksonville Center
07:19PM 33.2656 -79.8494 359° North 173 199 20,800 1,200 Climbing Jacksonville Center
07:20PM 33.3117 -79.8553 354° North 158 182 21,900 1,020 Climbing Jacksonville Center
07:21PM 33.3681 -79.8658 351° North 178 205 22,900 960 Climbing Jacksonville Center
07:22PM 33.4331 -79.8786 351° North 207 238 23,900 960 Climbing Jacksonville Center
07:23PM 33.4939 -79.8914 350° North 222 255 24,900 900 Climbing Jacksonville Center
07:24PM 33.5569 -79.9092 347° North 222 255 25,800 900 Climbing Jacksonville Center
07:25PM 33.6158 -79.9272 346° North 222 255 26,700 600 Climbing Jacksonville Center
07:26PM 33.6808 -79.9450 347° North 222 255 27,000 120 Climbing Jacksonville Center
07:27PM 33.7522 -79.9625 348° North 234 269 27,000  Level Jacksonville Center
07:28PM 33.8217 -79.9828 346° North 247 284 27,000  Level Jacksonville Center
07:29PM 33.8908 -80.0006 348° North 253 291 27,000  Level Jacksonville Center
07:30PM 33.9622 -80.0206 347° North 258 297 27,000  Level Jacksonville Center
07:31PM 34.0336 -80.0408 347° North 258 297 27,000  Level Jacksonville Center
07:32PM 34.1031 -80.0586 348° North 258 297 27,000  Level Jacksonville Center
07:33PM 34.1744 -80.0814 345° North 258 297 27,000 -60 Level Jacksonville Center
07:34PM 34.2436 -80.0992 348° North 258 297 26,900 -60 Descending Jacksonville Center
07:35PM 34.3150 -80.1169 348° North 258 297 26,900  Level Jacksonville Center
07:36PM 34.3822 -80.1403 344° North 258 297 27,000  Climbing Jacksonville Center
07:37PM 34.4514 -80.1556 350° North 253 291 27,000  Level Jacksonville Center
07:38PM 34.5603 -80.1897 346° North 268 308 27,000  Level Atlanta Center
07:39PM 34.6300 -80.2094 347° North 263 303 27,000  Level Atlanta Center
07:40PM 34.7036 -80.2286 348° North 263 303 27,000  Level Atlanta Center
07:41PM 34.7689 -80.2483 346° North 263 303 27,000  Level Atlanta Center
07:42PM 34.8425 -80.2678 348° North 263 303 27,000  Level Atlanta Center
07:43PM 34.9183 -80.2897 347° North 263 303 27,000  Level Atlanta Center
07:44PM 34.9919 -80.3094 348° North 263 303 27,000  Level Atlanta Center
07:45PM 35.0633 -80.3289 347° North 263 303 27,000  Level Atlanta Center
07:46PM 35.1372 -80.3511 346° North 263 303 27,000  Level Atlanta Center
07:47PM 35.2086 -80.3708 347° North 258 297 27,000  Level Atlanta Center
07:48PM 35.2803 -80.3903 348° North 263 303 27,000  Level Atlanta Center
07:49PM 35.3581 -80.4125 347° North 263 303 27,000  Level Atlanta Center
07:50PM 35.4294 -80.4322 347° North 263 303 27,000  Level Atlanta Center
07:51PM 35.5011 -80.4519 347° North 257 296 27,000  Level Atlanta Center
07:52PM 35.5706 -80.4744 345° North 262 302 27,000  Level Atlanta Center
07:53PM 35.6419 -80.4944 347° North 259 298 27,000  Level Atlanta Center
07:54PM 35.7156 -80.5142 348° North 264 304 27,000  Level Atlanta Center
07:55PM 35.7872 -80.5342 347° North 264 304 27,000  Level Atlanta Center
07:56PM 35.8608 -80.5567 346° North 259 298 27,000  Level Atlanta Center
07:57PM 35.9344 -80.5767 348° North 259 298 27,000  Level Atlanta Center
07:58PM 36.0100 -80.5989 347° North 271 312 27,000  Level Atlanta Center
07:59PM 36.0817 -80.6192 347° North 276 318 27,000  Level Atlanta Center
08:00PM 36.1572 -80.6417 346° North 276 318 27,000  Level Atlanta Center
08:01PM 36.2244 -80.6594 348° North 276 318 27,000 -420 Level Atlanta Center
08:02PM 36.2981 -80.6819 346° North 271 312 26,200 -1,020 Descending Atlanta Center
08:03PM 36.3781 -80.7044 347° North 284 327 25,000 -1,260 Descending Atlanta Center
08:04PM 36.4578 -80.7269 347° North 284 327 23,700 -1,200 Descending Atlanta Center
08:06PM 36.5733 -80.7617 346° North 293 337 22,000 -1,260 Descending Indianapolis Center
08:07PM 36.6644 -80.7875 347° North 289 333 20,600 -1,260 Descending Indianapolis Center
08:08PM 36.7406 -80.8094 347° North 288 331 19,400 -1,200 Descending Indianapolis Center
08:09PM 36.8150 -80.8314 347° North 283 326 18,200 -1,140 Descending Indianapolis Center
08:10PM 36.9022 -80.8564 347° North 276 318 17,100 -1,140 Descending Indianapolis Center
08:11PM 36.9733 -80.8778 346° North 271 312 15,900 -1,200 Descending Indianapolis Center
08:12PM 37.0464 -80.8997 347° North 275 316 14,700 -1,140 Descending Indianapolis Center
08:13PM 37.1197 -80.9208 347° North 276 318 13,600 -1,260 Descending Indianapolis Center
08:14PM 37.2069 -80.9461 347° North 277 319 12,200 -1,320 Descending Indianapolis Center
08:15PM 37.2808 -80.9681 347° North 278 320 11,000 -1,200 Descending Indianapolis Center
08:16PM 37.3531 -80.9917 345° North 275 316 9,800 -1,140 Descending Indianapolis Center
08:17PM 37.4256 -81.0133 347° North 275 316 8,700 -1,080 Descending Indianapolis Center